sensor_id;sensor_type;location;lat;lon;timestamp;P1;durP1;ratioP1;P2;durP2;ratioP2
43327;SDS011;28923;45.412;10.852;2023-07-16T04:32:34;1.20;;;1.10;;
43327;SDS011;28923;45.412;10.852;2023-07-16T04:35:00;1.45;;;1.10;;
43327;SDS011;28923;45.412;10.852;2023-07-16T04:37:26;1.10;;;1.00;;
43327;SDS011;28923;45.412;10.852;2023-07-16T04:39:51;1.23;;;1.13;;
43327;SDS011;28923;45.412;10.852;2023-07-16T04:42:16;1.00;;;0.90;;
43327;SDS011;28923;45.412;10.852;2023-07-16T04:44:42;0.90;;;0.90;;
43327;SDS011;28923;45.412;10.852;2023-07-16T04:47:07;2.90;;;2.28;;
43327;SDS011;28923;45.412;10.852;2023-07-16T04:49:34;3.53;;;2.58;;
43327;SDS011;28923;45.412;10.852;2023-07-16T04:51:59;4.32;;;3.05;;
43327;SDS011;28923;45.412;10.852;2023-07-16T04:54:25;4.82;;;3.60;;
43327;SDS011;28923;45.412;10.852;2023-07-16T04:56:50;7.70;;;2.92;;
43327;SDS011;28923;45.412;10.852;2023-07-16T04:59:17;4.22;;;3.13;;
43327;SDS011;28923;45.412;10.852;2023-07-16T05:01:44;7.75;;;3.85;;
43327;SDS011;28923;45.412;10.852;2023-07-16T05:04:10;8.43;;;4.38;;
43327;SDS011;28923;45.412;10.852;2023-07-16T05:06:36;6.88;;;4.20;;
43327;SDS011;28923;45.412;10.852;2023-07-16T05:09:01;10.10;;;4.53;;
43327;SDS011;28923;45.412;10.852;2023-07-16T05:11:26;9.88;;;4.80;;
43327;SDS011;28923;45.412;10.852;2023-07-16T05:13:52;9.20;;;5.20;;
43327;SDS011;28923;45.412;10.852;2023-07-16T05:16:17;9.88;;;5.07;;
43327;SDS011;28923;45.412;10.852;2023-07-16T05:18:42;9.07;;;5.40;;
43327;SDS011;28923;45.412;10.852;2023-07-16T05:21:08;10.18;;;5.68;;
43327;SDS011;28923;45.412;10.852;2023-07-16T05:23:33;8.85;;;5.72;;
43327;SDS011;28923;45.412;10.852;2023-07-16T05:25:58;13.52;;;5.47;;
43327;SDS011;28923;45.412;10.852;2023-07-16T05:28:25;10.73;;;5.47;;
43327;SDS011;28923;45.412;10.852;2023-07-16T05:30:58;7.75;;;5.05;;
43327;SDS011;28923;45.412;10.852;2023-07-16T05:35:48;7.80;;;4.97;;
43327;SDS011;28923;45.412;10.852;2023-07-16T05:38:15;6.57;;;4.57;;
43327;SDS011;28923;45.412;10.852;2023-07-16T05:40:40;9.57;;;4.85;;
43327;SDS011;28923;45.412;10.852;2023-07-16T05:43:05;9.88;;;5.07;;
43327;SDS011;28923;45.412;10.852;2023-07-16T05:45:31;8.73;;;5.10;;
43327;SDS011;28923;45.412;10.852;2023-07-16T05:47:56;7.32;;;4.95;;
43327;SDS011;28923;45.412;10.852;2023-07-16T05:50:21;8.32;;;4.80;;
43327;SDS011;28923;45.412;10.852;2023-07-16T05:52:47;7.80;;;4.93;;
43327;SDS011;28923;45.412;10.852;2023-07-16T05:55:13;8.95;;;5.10;;
43327;SDS011;28923;45.412;10.852;2023-07-16T05:57:39;6.35;;;4.78;;
43327;SDS011;28923;45.412;10.852;2023-07-16T06:00:04;6.85;;;4.72;;
43327;SDS011;28923;45.412;10.852;2023-07-16T06:02:36;8.82;;;5.03;;
43327;SDS011;28923;45.412;10.852;2023-07-16T06:05:02;7.85;;;5.10;;
43327;SDS011;28923;45.412;10.852;2023-07-16T06:07:27;8.18;;;4.95;;
43327;SDS011;28923;45.412;10.852;2023-07-16T06:09:53;7.85;;;5.50;;
43327;SDS011;28923;45.412;10.852;2023-07-16T06:12:18;9.48;;;6.28;;
43327;SDS011;28923;45.412;10.852;2023-07-16T06:14:44;9.68;;;5.15;;
43327;SDS011;28923;45.412;10.852;2023-07-16T06:17:09;11.02;;;4.90;;
43327;SDS011;28923;45.412;10.852;2023-07-16T06:19:35;7.05;;;5.22;;
43327;SDS011;28923;45.412;10.852;2023-07-16T06:22:00;9.23;;;4.93;;
43327;SDS011;28923;45.412;10.852;2023-07-16T06:24:25;7.10;;;5.03;;
43327;SDS011;28923;45.412;10.852;2023-07-16T06:26:51;5.47;;;4.72;;
43327;SDS011;28923;45.412;10.852;2023-07-16T06:29:16;7.45;;;4.60;;
43327;SDS011;28923;45.412;10.852;2023-07-16T06:31:42;7.20;;;5.00;;
43327;SDS011;28923;45.412;10.852;2023-07-16T06:34:09;7.85;;;4.90;;
43327;SDS011;28923;45.412;10.852;2023-07-16T06:36:34;10.73;;;6.03;;
43327;SDS011;28923;45.412;10.852;2023-07-16T06:39:00;10.27;;;5.22;;
43327;SDS011;28923;45.412;10.852;2023-07-16T06:41:25;6.50;;;4.88;;
43327;SDS011;28923;45.412;10.852;2023-07-16T06:43:51;10.13;;;5.25;;
43327;SDS011;28923;45.412;10.852;2023-07-16T06:46:16;10.23;;;5.20;;
43327;SDS011;28923;45.412;10.852;2023-07-16T06:48:41;7.95;;;5.38;;
43327;SDS011;28923;45.412;10.852;2023-07-16T06:51:07;7.05;;;4.18;;
43327;SDS011;28923;45.412;10.852;2023-07-16T06:53:32;8.80;;;5.03;;
43327;SDS011;28923;45.412;10.852;2023-07-16T06:55:58;6.25;;;4.95;;
43327;SDS011;28923;45.412;10.852;2023-07-16T06:58:30;6.95;;;4.47;;
43327;SDS011;28923;45.412;10.852;2023-07-16T07:03:21;7.87;;;4.93;;
43327;SDS011;28923;45.412;10.852;2023-07-16T07:05:46;11.02;;;4.30;;
43327;SDS011;28923;45.412;10.852;2023-07-16T07:08:11;4.95;;;4.38;;
43327;SDS011;28923;45.412;10.852;2023-07-16T07:10:37;7.65;;;4.63;;
43327;SDS011;28923;45.412;10.852;2023-07-16T07:13:03;7.05;;;4.65;;
43327;SDS011;28923;45.412;10.852;2023-07-16T07:15:28;9.18;;;4.28;;
43327;SDS011;28923;45.412;10.852;2023-07-16T07:17:53;8.88;;;4.28;;
43327;SDS011;28923;45.412;10.852;2023-07-16T07:20:19;8.57;;;4.47;;
43327;SDS011;28923;45.412;10.852;2023-07-16T07:22:44;6.65;;;4.43;;
43327;SDS011;28923;45.412;10.852;2023-07-16T07:25:10;5.72;;;4.28;;
43327;SDS011;28923;45.412;10.852;2023-07-16T07:27:35;7.18;;;4.03;;
43327;SDS011;28923;45.412;10.852;2023-07-16T07:30:00;6.35;;;3.97;;
43327;SDS011;28923;45.412;10.852;2023-07-16T07:32:26;6.82;;;3.95;;
43327;SDS011;28923;45.412;10.852;2023-07-16T07:34:51;8.63;;;4.00;;
43327;SDS011;28923;45.412;10.852;2023-07-16T07:37:16;5.63;;;4.00;;
43327;SDS011;28923;45.412;10.852;2023-07-16T07:39:42;5.35;;;3.88;;
43327;SDS011;28923;45.412;10.852;2023-07-16T07:42:07;5.15;;;4.18;;
43327;SDS011;28923;45.412;10.852;2023-07-16T07:44:35;5.60;;;3.75;;
43327;SDS011;28923;45.412;10.852;2023-07-16T07:47:00;6.93;;;3.97;;
43327;SDS011;28923;45.412;10.852;2023-07-16T07:49:25;4.60;;;3.70;;
43327;SDS011;28923;45.412;10.852;2023-07-16T07:51:51;5.90;;;3.90;;
43327;SDS011;28923;45.412;10.852;2023-07-16T07:54:16;4.30;;;3.33;;
43327;SDS011;28923;45.412;10.852;2023-07-16T07:56:42;4.28;;;3.60;;
43327;SDS011;28923;45.412;10.852;2023-07-16T07:59:07;4.82;;;3.75;;
43327;SDS011;28923;45.412;10.852;2023-07-16T08:01:32;3.58;;;3.28;;
43327;SDS011;28923;45.412;10.852;2023-07-16T08:03:58;6.78;;;3.42;;
43327;SDS011;28923;45.412;10.852;2023-07-16T08:06:23;5.25;;;3.30;;
43327;SDS011;28923;45.412;10.852;2023-07-16T08:08:49;4.80;;;3.60;;
43327;SDS011;28923;45.412;10.852;2023-07-16T08:11:14;4.40;;;3.50;;
43327;SDS011;28923;45.412;10.852;2023-07-16T08:13:39;4.13;;;3.72;;
43327;SDS011;28923;45.412;10.852;2023-07-16T08:16:05;6.10;;;3.92;;
43327;SDS011;28923;45.412;10.852;2023-07-16T08:18:30;3.90;;;3.00;;
43327;SDS011;28923;45.412;10.852;2023-07-16T08:20:55;4.38;;;3.40;;
43327;SDS011;28923;45.412;10.852;2023-07-16T08:23:21;4.18;;;3.30;;
43327;SDS011;28923;45.412;10.852;2023-07-16T08:25:46;3.83;;;3.17;;
43327;SDS011;28923;45.412;10.852;2023-07-16T08:28:12;4.60;;;3.20;;
43327;SDS011;28923;45.412;10.852;2023-07-16T08:30:37;3.30;;;3.00;;
43327;SDS011;28923;45.412;10.852;2023-07-16T08:33:02;6.60;;;3.30;;
43327;SDS011;28923;45.412;10.852;2023-07-16T08:35:28;3.92;;;3.38;;
43327;SDS011;28923;45.412;10.852;2023-07-16T08:37:53;4.10;;;3.03;;
43327;SDS011;28923;45.412;10.852;2023-07-16T08:40:19;4.45;;;2.83;;
43327;SDS011;28923;45.412;10.852;2023-07-16T08:42:45;3.58;;;2.75;;
43327;SDS011;28923;45.412;10.852;2023-07-16T08:45:11;4.78;;;3.10;;
43327;SDS011;28923;45.412;10.852;2023-07-16T08:47:37;4.65;;;3.00;;
43327;SDS011;28923;45.412;10.852;2023-07-16T08:50:02;3.50;;;2.60;;
43327;SDS011;28923;45.412;10.852;2023-07-16T08:52:28;4.00;;;3.10;;
43327;SDS011;28923;45.412;10.852;2023-07-16T08:54:54;3.70;;;2.92;;
43327;SDS011;28923;45.412;10.852;2023-07-16T08:57:20;7.25;;;3.60;;
43327;SDS011;28923;45.412;10.852;2023-07-16T08:59:48;7.00;;;3.20;;
43327;SDS011;28923;45.412;10.852;2023-07-16T09:02:18;7.63;;;3.80;;
43327;SDS011;28923;45.412;10.852;2023-07-16T09:04:44;5.28;;;3.22;;
43327;SDS011;28923;45.412;10.852;2023-07-16T09:07:09;5.03;;;3.10;;
43327;SDS011;28923;45.412;10.852;2023-07-16T09:09:34;4.53;;;3.10;;
43327;SDS011;28923;45.412;10.852;2023-07-16T09:12:00;6.55;;;3.10;;
43327;SDS011;28923;45.412;10.852;2023-07-16T09:14:26;4.45;;;3.05;;
43327;SDS011;28923;45.412;10.852;2023-07-16T09:16:52;3.80;;;2.88;;
43327;SDS011;28923;45.412;10.852;2023-07-16T09:19:18;4.20;;;3.00;;
43327;SDS011;28923;45.412;10.852;2023-07-16T09:21:47;7.15;;;3.40;;
43327;SDS011;28923;45.412;10.852;2023-07-16T09:24:12;6.70;;;3.15;;
43327;SDS011;28923;45.412;10.852;2023-07-16T09:26:38;5.22;;;2.72;;
43327;SDS011;28923;45.412;10.852;2023-07-16T09:29:06;3.72;;;2.90;;
43327;SDS011;28923;45.412;10.852;2023-07-16T09:31:33;5.30;;;2.83;;
43327;SDS011;28923;45.412;10.852;2023-07-16T09:33:58;5.50;;;3.30;;
43327;SDS011;28923;45.412;10.852;2023-07-16T09:36:26;4.53;;;2.95;;
43327;SDS011;28923;45.412;10.852;2023-07-16T09:38:53;5.45;;;3.08;;
43327;SDS011;28923;45.412;10.852;2023-07-16T09:41:19;3.40;;;2.80;;
43327;SDS011;28923;45.412;10.852;2023-07-16T09:43:45;4.35;;;2.78;;
43327;SDS011;28923;45.412;10.852;2023-07-16T09:46:10;5.82;;;3.05;;
43327;SDS011;28923;45.412;10.852;2023-07-16T09:48:36;3.65;;;3.08;;
43327;SDS011;28923;45.412;10.852;2023-07-16T09:51:01;4.28;;;2.70;;
43327;SDS011;28923;45.412;10.852;2023-07-16T09:53:27;4.00;;;2.72;;
43327;SDS011;28923;45.412;10.852;2023-07-16T09:55:55;5.13;;;3.35;;
43327;SDS011;28923;45.412;10.852;2023-07-16T09:58:20;4.60;;;2.97;;
43327;SDS011;28923;45.412;10.852;2023-07-16T10:00:47;3.67;;;2.70;;
43327;SDS011;28923;45.412;10.852;2023-07-16T10:03:14;4.45;;;2.88;;
43327;SDS011;28923;45.412;10.852;2023-07-16T10:05:39;4.13;;;2.78;;
43327;SDS011;28923;45.412;10.852;2023-07-16T10:08:14;2.65;;;2.45;;
43327;SDS011;28923;45.412;10.852;2023-07-16T10:10:41;6.50;;;2.97;;
43327;SDS011;28923;45.412;10.852;2023-07-16T10:13:07;3.58;;;2.67;;
43327;SDS011;28923;45.412;10.852;2023-07-16T10:15:33;4.35;;;3.15;;
43327;SDS011;28923;45.412;10.852;2023-07-16T10:17:58;4.10;;;3.10;;
43327;SDS011;28923;45.412;10.852;2023-07-16T10:22:55;4.35;;;3.10;;
43327;SDS011;28923;45.412;10.852;2023-07-16T10:27:46;3.42;;;2.97;;
43327;SDS011;28923;45.412;10.852;2023-07-16T10:30:12;3.78;;;3.00;;
43327;SDS011;28923;45.412;10.852;2023-07-16T10:32:38;3.53;;;2.70;;
43327;SDS011;28923;45.412;10.852;2023-07-16T10:35:04;3.42;;;2.95;;
43327;SDS011;28923;45.412;10.852;2023-07-16T10:37:29;5.53;;;2.90;;
43327;SDS011;28923;45.412;10.852;2023-07-16T10:39:56;4.22;;;2.80;;
43327;SDS011;28923;45.412;10.852;2023-07-16T10:42:22;3.78;;;2.67;;
43327;SDS011;28923;45.412;10.852;2023-07-16T10:44:51;4.20;;;2.55;;
43327;SDS011;28923;45.412;10.852;2023-07-16T10:47:25;5.63;;;2.75;;
43327;SDS011;28923;45.412;10.852;2023-07-16T10:52:17;3.15;;;2.75;;
43327;SDS011;28923;45.412;10.852;2023-07-16T10:54:43;4.50;;;2.35;;
43327;SDS011;28923;45.412;10.852;2023-07-16T10:57:08;3.53;;;2.42;;
43327;SDS011;28923;45.412;10.852;2023-07-16T10:59:36;3.03;;;2.50;;
43327;SDS011;28923;45.412;10.852;2023-07-16T11:02:01;3.53;;;2.65;;
43327;SDS011;28923;45.412;10.852;2023-07-16T11:04:32;3.78;;;2.50;;
43327;SDS011;28923;45.412;10.852;2023-07-16T11:06:58;4.72;;;2.33;;
43327;SDS011;28923;45.412;10.852;2023-07-16T11:09:23;3.25;;;2.15;;
43327;SDS011;28923;45.412;10.852;2023-07-16T11:11:48;3.55;;;2.58;;
43327;SDS011;28923;45.412;10.852;2023-07-16T11:14:14;3.50;;;2.47;;
43327;SDS011;28923;45.412;10.852;2023-07-16T11:16:39;2.63;;;2.33;;
43327;SDS011;28923;45.412;10.852;2023-07-16T11:19:05;3.25;;;2.55;;
43327;SDS011;28923;45.412;10.852;2023-07-16T11:21:31;3.08;;;2.60;;
43327;SDS011;28923;45.412;10.852;2023-07-16T11:24:12;4.30;;;2.67;;
43327;SDS011;28923;45.412;10.852;2023-07-16T11:26:38;3.20;;;2.60;;
43327;SDS011;28923;45.412;10.852;2023-07-16T11:29:12;3.50;;;2.22;;
43327;SDS011;28923;45.412;10.852;2023-07-16T11:31:38;2.92;;;2.30;;
43327;SDS011;28923;45.412;10.852;2023-07-16T11:34:05;2.50;;;2.13;;
43327;SDS011;28923;45.412;10.852;2023-07-16T11:36:32;2.67;;;2.00;;
43327;SDS011;28923;45.412;10.852;2023-07-16T11:38:58;3.03;;;2.20;;
43327;SDS011;28923;45.412;10.852;2023-07-16T11:41:23;3.13;;;2.08;;
43327;SDS011;28923;45.412;10.852;2023-07-16T11:43:48;5.85;;;2.33;;
43327;SDS011;28923;45.412;10.852;2023-07-16T11:46:15;4.30;;;2.33;;
43327;SDS011;28923;45.412;10.852;2023-07-16T11:48:41;6.85;;;2.55;;
43327;SDS011;28923;45.412;10.852;2023-07-16T11:51:06;3.95;;;1.95;;
43327;SDS011;28923;45.412;10.852;2023-07-16T11:53:31;6.72;;;2.28;;
43327;SDS011;28923;45.412;10.852;2023-07-16T11:55:57;4.78;;;2.30;;
43327;SDS011;28923;45.412;10.852;2023-07-16T11:58:22;3.00;;;1.80;;
43327;SDS011;28923;45.412;10.852;2023-07-16T12:00:48;4.32;;;2.10;;
43327;SDS011;28923;45.412;10.852;2023-07-16T12:03:13;4.57;;;2.35;;
43327;SDS011;28923;45.412;10.852;2023-07-16T12:05:38;2.67;;;1.85;;
43327;SDS011;28923;45.412;10.852;2023-07-16T12:08:04;3.13;;;2.40;;
43327;SDS011;28923;45.412;10.852;2023-07-16T12:10:29;6.53;;;2.30;;
43327;SDS011;28923;45.412;10.852;2023-07-16T12:12:55;4.07;;;2.47;;
43327;SDS011;28923;45.412;10.852;2023-07-16T12:15:20;3.88;;;2.40;;
43327;SDS011;28923;45.412;10.852;2023-07-16T12:17:46;3.78;;;2.30;;
43327;SDS011;28923;45.412;10.852;2023-07-16T12:20:11;4.22;;;2.05;;
43327;SDS011;28923;45.412;10.852;2023-07-16T12:22:36;2.80;;;2.03;;
43327;SDS011;28923;45.412;10.852;2023-07-16T12:25:02;5.78;;;2.50;;
43327;SDS011;28923;45.412;10.852;2023-07-16T12:27:27;2.97;;;2.50;;
43327;SDS011;28923;45.412;10.852;2023-07-16T12:29:53;3.33;;;2.53;;
43327;SDS011;28923;45.412;10.852;2023-07-16T12:32:18;3.10;;;2.20;;
43327;SDS011;28923;45.412;10.852;2023-07-16T12:34:45;4.90;;;2.60;;
43327;SDS011;28923;45.412;10.852;2023-07-16T12:37:10;3.45;;;2.33;;
43327;SDS011;28923;45.412;10.852;2023-07-16T12:39:36;5.13;;;2.22;;
43327;SDS011;28923;45.412;10.852;2023-07-16T12:42:01;4.38;;;1.95;;
43327;SDS011;28923;45.412;10.852;2023-07-16T12:44:27;3.42;;;2.42;;
43327;SDS011;28923;45.412;10.852;2023-07-16T12:46:52;4.60;;;2.65;;
43327;SDS011;28923;45.412;10.852;2023-07-16T12:49:18;2.60;;;2.33;;
43327;SDS011;28923;45.412;10.852;2023-07-16T12:51:43;3.90;;;2.30;;
43327;SDS011;28923;45.412;10.852;2023-07-16T12:54:08;3.78;;;2.10;;
43327;SDS011;28923;45.412;10.852;2023-07-16T12:56:34;3.42;;;2.50;;
43327;SDS011;28923;45.412;10.852;2023-07-16T12:58:59;5.88;;;2.53;;
43327;SDS011;28923;45.412;10.852;2023-07-16T13:01:24;3.42;;;2.55;;
43327;SDS011;28923;45.412;10.852;2023-07-16T13:03:50;4.15;;;2.58;;
43327;SDS011;28923;45.412;10.852;2023-07-16T13:06:15;3.00;;;2.05;;
43327;SDS011;28923;45.412;10.852;2023-07-16T13:08:41;3.72;;;2.42;;
43327;SDS011;28923;45.412;10.852;2023-07-16T13:11:06;4.00;;;2.55;;
43327;SDS011;28923;45.412;10.852;2023-07-16T13:13:31;2.78;;;2.17;;
43327;SDS011;28923;45.412;10.852;2023-07-16T13:15:57;3.42;;;2.10;;
43327;SDS011;28923;45.412;10.852;2023-07-16T13:18:22;2.78;;;2.22;;
43327;SDS011;28923;45.412;10.852;2023-07-16T13:20:48;3.33;;;2.00;;
43327;SDS011;28923;45.412;10.852;2023-07-16T13:23:13;6.72;;;2.42;;
43327;SDS011;28923;45.412;10.852;2023-07-16T13:25:39;2.80;;;2.00;;
43327;SDS011;28923;45.412;10.852;2023-07-16T13:28:05;3.00;;;1.90;;
43327;SDS011;28923;45.412;10.852;2023-07-16T13:30:30;3.42;;;1.98;;
43327;SDS011;28923;45.412;10.852;2023-07-16T13:32:55;4.28;;;2.47;;
43327;SDS011;28923;45.412;10.852;2023-07-16T13:35:21;3.88;;;2.00;;
43327;SDS011;28923;45.412;10.852;2023-07-16T13:37:47;3.28;;;2.05;;
43327;SDS011;28923;45.412;10.852;2023-07-16T13:40:12;4.43;;;2.20;;
43327;SDS011;28923;45.412;10.852;2023-07-16T13:42:38;4.45;;;2.15;;
43327;SDS011;28923;45.412;10.852;2023-07-16T13:45:04;3.67;;;2.00;;
43327;SDS011;28923;45.412;10.852;2023-07-16T13:47:29;5.68;;;2.40;;
43327;SDS011;28923;45.412;10.852;2023-07-16T13:49:55;3.63;;;2.08;;
43327;SDS011;28923;45.412;10.852;2023-07-16T13:52:20;3.85;;;2.10;;
43327;SDS011;28923;45.412;10.852;2023-07-16T13:54:45;5.40;;;2.35;;
43327;SDS011;28923;45.412;10.852;2023-07-16T13:57:11;4.57;;;2.42;;
43327;SDS011;28923;45.412;10.852;2023-07-16T13:59:36;3.15;;;2.30;;
43327;SDS011;28923;45.412;10.852;2023-07-16T14:02:02;3.95;;;2.65;;
43327;SDS011;28923;45.412;10.852;2023-07-16T14:04:28;4.10;;;2.20;;
43327;SDS011;28923;45.412;10.852;2023-07-16T14:06:54;6.78;;;2.05;;
43327;SDS011;28923;45.412;10.852;2023-07-16T14:09:20;2.22;;;1.80;;
43327;SDS011;28923;45.412;10.852;2023-07-16T14:11:45;3.67;;;2.45;;
43327;SDS011;28923;45.412;10.852;2023-07-16T14:14:15;3.55;;;2.13;;
43327;SDS011;28923;45.412;10.852;2023-07-16T14:16:40;3.17;;;2.00;;
43327;SDS011;28923;45.412;10.852;2023-07-16T14:19:06;3.35;;;1.85;;
43327;SDS011;28923;45.412;10.852;2023-07-16T14:21:31;2.58;;;2.20;;
43327;SDS011;28923;45.412;10.852;2023-07-16T14:23:57;4.40;;;2.00;;
43327;SDS011;28923;45.412;10.852;2023-07-16T14:26:22;2.92;;;2.20;;
43327;SDS011;28923;45.412;10.852;2023-07-16T14:28:48;2.50;;;2.15;;
43327;SDS011;28923;45.412;10.852;2023-07-16T14:31:13;2.22;;;1.88;;
43327;SDS011;28923;45.412;10.852;2023-07-16T14:33:39;4.00;;;2.03;;
43327;SDS011;28923;45.412;10.852;2023-07-16T14:36:04;2.03;;;1.77;;
43327;SDS011;28923;45.412;10.852;2023-07-16T14:38:30;2.20;;;2.00;;
43327;SDS011;28923;45.412;10.852;2023-07-16T14:40:55;2.88;;;2.03;;
43327;SDS011;28923;45.412;10.852;2023-07-16T14:43:21;3.15;;;2.40;;
43327;SDS011;28923;45.412;10.852;2023-07-16T14:45:46;2.95;;;1.60;;
43327;SDS011;28923;45.412;10.852;2023-07-16T14:48:12;2.17;;;1.90;;
43327;SDS011;28923;45.412;10.852;2023-07-16T14:50:37;2.83;;;1.95;;
43327;SDS011;28923;45.412;10.852;2023-07-16T14:53:04;2.15;;;1.70;;
43327;SDS011;28923;45.412;10.852;2023-07-16T14:55:29;2.88;;;1.90;;
43327;SDS011;28923;45.412;10.852;2023-07-16T14:57:55;2.25;;;1.90;;
43327;SDS011;28923;45.412;10.852;2023-07-16T15:00:21;2.15;;;1.90;;
43327;SDS011;28923;45.412;10.852;2023-07-16T15:02:46;2.72;;;1.90;;
43327;SDS011;28923;45.412;10.852;2023-07-16T15:05:11;2.35;;;1.70;;
43327;SDS011;28923;45.412;10.852;2023-07-16T15:07:37;2.50;;;1.63;;
43327;SDS011;28923;45.412;10.852;2023-07-16T15:10:03;2.63;;;1.95;;
43327;SDS011;28923;45.412;10.852;2023-07-16T15:12:28;2.05;;;1.70;;
43327;SDS011;28923;45.412;10.852;2023-07-16T15:14:53;2.95;;;1.70;;
43327;SDS011;28923;45.412;10.852;2023-07-16T15:17:19;4.03;;;1.77;;
43327;SDS011;28923;45.412;10.852;2023-07-16T15:19:44;2.58;;;1.65;;
43327;SDS011;28923;45.412;10.852;2023-07-16T15:22:10;3.67;;;1.90;;
43327;SDS011;28923;45.412;10.852;2023-07-16T15:24:36;1.80;;;1.70;;
43327;SDS011;28923;45.412;10.852;2023-07-16T15:27:01;2.92;;;1.80;;
43327;SDS011;28923;45.412;10.852;2023-07-16T15:29:28;1.58;;;1.48;;
43327;SDS011;28923;45.412;10.852;2023-07-16T15:31:54;1.98;;;1.77;;
43327;SDS011;28923;45.412;10.852;2023-07-16T15:34:19;1.75;;;1.65;;
43327;SDS011;28923;45.412;10.852;2023-07-16T15:36:44;1.88;;;1.60;;
43327;SDS011;28923;45.412;10.852;2023-07-16T15:39:10;1.85;;;1.58;;
43327;SDS011;28923;45.412;10.852;2023-07-16T15:41:35;1.65;;;1.55;;
43327;SDS011;28923;45.412;10.852;2023-07-16T15:44:01;1.77;;;1.63;;
43327;SDS011;28923;45.412;10.852;2023-07-16T15:46:29;1.88;;;1.63;;
43327;SDS011;28923;45.412;10.852;2023-07-16T15:48:54;2.30;;;1.40;;
43327;SDS011;28923;45.412;10.852;2023-07-16T15:51:19;2.28;;;1.60;;
43327;SDS011;28923;45.412;10.852;2023-07-16T15:53:46;1.88;;;1.40;;
43327;SDS011;28923;45.412;10.852;2023-07-16T15:56:11;3.13;;;1.58;;
43327;SDS011;28923;45.412;10.852;2023-07-16T15:58:37;2.65;;;1.60;;
43327;SDS011;28923;45.412;10.852;2023-07-16T16:01:03;1.92;;;1.52;;
43327;SDS011;28923;45.412;10.852;2023-07-16T16:03:28;1.60;;;1.50;;
43327;SDS011;28923;45.412;10.852;2023-07-16T16:05:54;3.63;;;1.50;;
43327;SDS011;28923;45.412;10.852;2023-07-16T16:08:20;1.60;;;1.50;;
43327;SDS011;28923;45.412;10.852;2023-07-16T16:10:50;1.77;;;1.50;;
43327;SDS011;28923;45.412;10.852;2023-07-16T16:13:16;1.60;;;1.50;;
43327;SDS011;28923;45.412;10.852;2023-07-16T16:15:42;2.55;;;1.40;;
43327;SDS011;28923;45.412;10.852;2023-07-16T16:18:07;2.50;;;1.52;;
43327;SDS011;28923;45.412;10.852;2023-07-16T16:20:33;3.78;;;1.60;;
43327;SDS011;28923;45.412;10.852;2023-07-16T16:22:58;3.22;;;1.50;;
43327;SDS011;28923;45.412;10.852;2023-07-16T16:25:28;1.73;;;1.60;;
43327;SDS011;28923;45.412;10.852;2023-07-16T16:27:53;1.77;;;1.42;;
43327;SDS011;28923;45.412;10.852;2023-07-16T16:30:18;2.10;;;1.45;;
43327;SDS011;28923;45.412;10.852;2023-07-16T16:32:44;2.17;;;1.55;;
43327;SDS011;28923;45.412;10.852;2023-07-16T16:35:11;1.58;;;1.48;;
43327;SDS011;28923;45.412;10.852;2023-07-16T16:37:37;2.85;;;1.40;;
43327;SDS011;28923;45.412;10.852;2023-07-16T16:40:02;2.50;;;1.58;;
43327;SDS011;28923;45.412;10.852;2023-07-16T16:42:31;1.70;;;1.60;;
43327;SDS011;28923;45.412;10.852;2023-07-16T16:44:57;5.57;;;1.73;;
43327;SDS011;28923;45.412;10.852;2023-07-16T16:47:25;2.35;;;1.73;;
43327;SDS011;28923;45.412;10.852;2023-07-16T16:49:50;2.03;;;1.60;;
43327;SDS011;28923;45.412;10.852;2023-07-16T16:52:16;3.03;;;2.08;;
43327;SDS011;28923;45.412;10.852;2023-07-16T16:54:41;3.22;;;1.80;;
43327;SDS011;28923;45.412;10.852;2023-07-16T16:57:07;1.83;;;1.45;;
43327;SDS011;28923;45.412;10.852;2023-07-16T16:59:34;2.30;;;1.63;;
43327;SDS011;28923;45.412;10.852;2023-07-16T17:02:00;2.20;;;1.90;;
43327;SDS011;28923;45.412;10.852;2023-07-16T17:04:26;1.70;;;1.50;;
43327;SDS011;28923;45.412;10.852;2023-07-16T17:06:51;3.20;;;1.73;;
43327;SDS011;28923;45.412;10.852;2023-07-16T17:09:18;2.05;;;1.77;;
43327;SDS011;28923;45.412;10.852;2023-07-16T17:11:43;2.00;;;1.80;;
43327;SDS011;28923;45.412;10.852;2023-07-16T17:14:09;3.60;;;1.95;;
43327;SDS011;28923;45.412;10.852;2023-07-16T17:16:34;2.60;;;1.90;;
43327;SDS011;28923;45.412;10.852;2023-07-16T17:19:00;2.33;;;1.83;;
43327;SDS011;28923;45.412;10.852;2023-07-16T17:21:25;2.83;;;1.70;;
43327;SDS011;28923;45.412;10.852;2023-07-16T17:23:51;2.90;;;2.00;;
43327;SDS011;28923;45.412;10.852;2023-07-16T17:26:17;3.42;;;2.22;;
43327;SDS011;28923;45.412;10.852;2023-07-16T17:28:42;3.40;;;1.80;;
43327;SDS011;28923;45.412;10.852;2023-07-16T17:31:10;2.53;;;1.67;;
43327;SDS011;28923;45.412;10.852;2023-07-16T17:33:36;1.80;;;1.60;;
43327;SDS011;28923;45.412;10.852;2023-07-16T17:36:01;1.50;;;1.40;;
43327;SDS011;28923;45.412;10.852;2023-07-16T17:38:27;2.03;;;1.80;;
43327;SDS011;28923;45.412;10.852;2023-07-16T17:40:53;2.95;;;1.70;;
43327;SDS011;28923;45.412;10.852;2023-07-16T17:43:18;4.07;;;1.83;;
43327;SDS011;28923;45.412;10.852;2023-07-16T17:45:44;2.83;;;1.83;;
43327;SDS011;28923;45.412;10.852;2023-07-16T17:48:09;3.70;;;1.45;;
43327;SDS011;28923;45.412;10.852;2023-07-16T17:50:34;2.50;;;1.52;;
43327;SDS011;28923;45.412;10.852;2023-07-16T17:53:01;2.05;;;1.60;;
43327;SDS011;28923;45.412;10.852;2023-07-16T17:55:27;4.80;;;2.10;;
43327;SDS011;28923;45.412;10.852;2023-07-16T17:57:52;4.57;;;2.35;;
43327;SDS011;28923;45.412;10.852;2023-07-16T18:00:18;3.08;;;2.20;;
43327;SDS011;28923;45.412;10.852;2023-07-16T18:02:44;2.90;;;2.60;;
43327;SDS011;28923;45.412;10.852;2023-07-16T18:05:10;3.03;;;2.65;;
43327;SDS011;28923;45.412;10.852;2023-07-16T18:07:35;4.05;;;2.42;;
43327;SDS011;28923;45.412;10.852;2023-07-16T18:10:02;4.93;;;2.92;;
43327;SDS011;28923;45.412;10.852;2023-07-16T18:12:27;2.75;;;2.55;;
43327;SDS011;28923;45.412;10.852;2023-07-16T18:14:53;4.45;;;2.85;;
43327;SDS011;28923;45.412;10.852;2023-07-16T18:17:19;3.45;;;2.42;;
43327;SDS011;28923;45.412;10.852;2023-07-16T18:19:45;2.92;;;2.63;;
43327;SDS011;28923;45.412;10.852;2023-07-16T18:22:10;2.95;;;2.50;;
43327;SDS011;28923;45.412;10.852;2023-07-16T18:24:35;4.35;;;2.45;;
43327;SDS011;28923;45.412;10.852;2023-07-16T18:27:01;3.42;;;2.40;;
43327;SDS011;28923;45.412;10.852;2023-07-16T18:29:29;3.22;;;2.40;;
43327;SDS011;28923;45.412;10.852;2023-07-16T18:31:55;3.83;;;2.38;;
43327;SDS011;28923;45.412;10.852;2023-07-16T18:34:21;2.47;;;2.15;;
43327;SDS011;28923;45.412;10.852;2023-07-16T18:36:46;3.25;;;2.40;;
43327;SDS011;28923;45.412;10.852;2023-07-16T18:39:13;5.82;;;2.60;;
43327;SDS011;28923;45.412;10.852;2023-07-16T18:41:38;5.15;;;2.40;;
43327;SDS011;28923;45.412;10.852;2023-07-16T18:44:05;5.75;;;3.40;;
43327;SDS011;28923;45.412;10.852;2023-07-16T18:46:33;6.03;;;3.40;;
43327;SDS011;28923;45.412;10.852;2023-07-16T18:49:00;5.60;;;3.15;;
43327;SDS011;28923;45.412;10.852;2023-07-16T18:51:26;7.28;;;3.00;;
43327;SDS011;28923;45.412;10.852;2023-07-16T18:53:51;7.40;;;4.00;;
43327;SDS011;28923;45.412;10.852;2023-07-16T18:56:17;5.32;;;3.15;;
43327;SDS011;28923;45.412;10.852;2023-07-16T18:58:42;7.03;;;3.30;;
43327;SDS011;28923;45.412;10.852;2023-07-16T19:01:08;7.97;;;3.08;;
43327;SDS011;28923;45.412;10.852;2023-07-16T19:03:33;7.15;;;3.47;;
43327;SDS011;28923;45.412;10.852;2023-07-16T19:06:00;8.55;;;3.60;;
43327;SDS011;28923;45.412;10.852;2023-07-16T19:08:26;5.32;;;3.38;;